createdAt,value
2024-02-13T00:02:25.357Z,99859.94
2024-02-13T00:07:25.948Z,99870.53
2024-02-13T00:12:25.003Z,99861.25
2024-02-13T00:17:24.678Z,99873.47
2024-02-13T00:22:25.571Z,99874.16
2024-02-13T00:27:24.504Z,99874.63
2024-02-13T00:32:23.473Z,99870.06
2024-02-13T00:37:24.573Z,99875.88
2024-02-13T00:42:25.059Z,99879.56
2024-02-13T00:47:23.998Z,99867.88
2024-02-13T00:52:22.864Z,99868.28
2024-02-13T00:57:21.895Z,99867.06
2024-02-13T01:02:24.050Z,99878.00
2024-02-13T01:07:22.934Z,99877.25
2024-02-13T01:12:21.833Z,99876.09
2024-02-13T01:17:22.224Z,99876.63
2024-02-13T01:22:21.157Z,99883.16
2024-02-13T01:27:21.377Z,99885.56
2024-02-13T01:32:21.689Z,99887.66
2024-02-13T01:37:21.273Z,99889.00
2024-02-13T01:42:20.147Z,99885.22
2024-02-13T01:47:19.267Z,99880.28
2024-02-13T01:52:20.304Z,99886.66
2024-02-13T01:57:20.194Z,99873.81
2024-02-13T02:02:19.633Z,99873.13
2024-02-13T02:07:20.900Z,99869.88
2024-02-13T02:12:19.811Z,99866.94
2024-02-13T02:17:18.727Z,99878.44
2024-02-13T02:22:17.611Z,99877.88
2024-02-13T02:27:19.055Z,99859.41
2024-02-13T02:32:18.127Z,99876.88
2024-02-13T02:37:17.118Z,99881.88
2024-02-13T02:42:19.255Z,99888.00
2024-02-13T02:47:19.479Z,99895.50
2024-02-13T02:52:19.046Z,99895.25
2024-02-13T02:57:19.249Z,99903.34
2024-02-13T03:02:18.024Z,99910.63
2024-02-13T03:07:16.994Z,99913.31
2024-02-13T03:12:15.828Z,99925.97
2024-02-13T03:17:16.111Z,99921.16
2024-02-13T03:22:15.256Z,99914.72
2024-02-13T03:27:14.137Z,99919.28
2024-02-13T03:32:13.031Z,99906.59
2024-02-13T03:37:13.283Z,99915.31
2024-02-13T03:42:12.093Z,99920.13
2024-02-13T03:47:10.995Z,99940.63
2024-02-13T03:52:10.999Z,99928.28
2024-02-13T03:57:12.275Z,99923.34
2024-02-13T04:02:11.189Z,99923.88
2024-02-13T04:07:10.123Z,99933.22
2024-02-13T04:12:11.416Z,99942.69
2024-02-13T04:17:12.198Z,99954.69
2024-02-13T04:22:11.436Z,99957.13
2024-02-13T04:27:11.805Z,99959.09
2024-02-13T04:32:10.720Z,99963.94
2024-02-13T04:37:10.383Z,99960.13
2024-02-13T04:42:11.593Z,99960.88
2024-02-13T04:47:12.302Z,99962.31
2024-02-13T04:52:12.577Z,99960.16
2024-02-13T04:57:11.501Z,99969.94
2024-02-13T05:02:12.736Z,99977.31
2024-02-13T05:07:24.875Z,99974.34
2024-02-13T05:12:23.800Z,99977.25
2024-02-13T05:17:25.229Z,99985.78
2024-02-13T05:22:24.147Z,99988.31
2024-02-13T05:27:23.077Z,99987.22
2024-02-13T05:32:26.805Z,99980.09
2024-02-13T05:37:25.810Z,99989.09
2024-02-13T05:42:24.758Z,99996.03
2024-02-13T05:47:24.853Z,99986.72
2024-02-13T05:52:25.105Z,99979.28
2024-02-13T05:57:24.015Z,99981.63
2024-02-13T06:02:23.620Z,99977.94
2024-02-13T06:07:22.900Z,99974.94
2024-02-13T06:12:23.902Z,99977.34
2024-02-13T06:17:23.568Z,99989.25
2024-02-13T06:22:22.573Z,99981.56
2024-02-13T06:27:22.859Z,99984.13
2024-02-13T06:32:22.054Z,99978.25
2024-02-13T06:37:21.046Z,99989.78
2024-02-13T06:42:20.364Z,99989.81
2024-02-13T06:47:20.787Z,99983.44
2024-02-13T06:52:23.312Z,99979.84
2024-02-13T07:08:17.805Z,100000.41
2024-02-13T07:13:17.418Z,99991.00
2024-02-13T07:18:20.830Z,99990.59
2024-02-13T07:23:38.006Z,99999.91
2024-02-13T07:28:43.349Z,99998.31
2024-02-13T07:33:49.467Z,99997.19
2024-02-13T07:38:54.115Z,100010.41
2024-02-13T07:43:52.995Z,100000.31
2024-02-13T07:49:16.597Z,100008.63
2024-02-13T07:54:16.479Z,99996.81
2024-02-13T07:59:17.828Z,100022.69
2024-02-13T08:04:19.894Z,100019.97
2024-02-13T08:09:34.602Z,100014.72
2024-02-13T08:14:34.293Z,100007.59
2024-02-13T08:19:34.874Z,100021.56
2024-02-13T08:24:37.622Z,100032.41
2024-02-13T08:29:47.048Z,100020.25
2024-02-13T08:35:02.708Z,100033.75
2024-02-13T08:40:02.248Z,100016.03
2024-02-13T08:45:05.981Z,100024.06
2024-02-13T08:50:16.819Z,100017.56
2024-02-13T08:55:23.416Z,100014.63
2024-02-13T09:00:24.106Z,100031.53
2024-02-13T09:05:24.335Z,100026.09
2024-02-13T09:10:26.033Z,100019.69
2024-02-13T09:15:26.729Z,100026.72
2024-02-13T09:20:30.150Z,100027.19
2024-02-13T09:26:00.318Z,100036.03
2024-02-13T09:31:04.975Z,100018.97
2024-02-13T09:41:34.870Z,100034.91
2024-02-13T09:46:33.822Z,100025.63
2024-02-13T09:51:35.295Z,100034.81
2024-02-13T09:56:35.093Z,100014.78
2024-02-13T10:01:34.222Z,100028.38
2024-02-13T10:06:34.594Z,100010.13
2024-02-13T10:11:36.412Z,100011.59
2024-02-13T10:16:35.713Z,100012.78
2024-02-13T10:21:37.472Z,100003.38
2024-02-13T10:26:48.307Z,100020.66
2024-02-13T10:31:47.091Z,100012.25
2024-02-13T10:36:47.425Z,100010.56
2024-02-13T10:42:03.495Z,100000.06
2024-02-13T10:47:04.666Z,100000.41
2024-02-13T10:52:08.333Z,100003.03
2024-02-13T10:57:27.679Z,99995.56
2024-02-13T11:02:31.225Z,99995.53
2024-02-13T11:07:32.140Z,99999.56
2024-02-13T11:12:39.443Z,99996.00
2024-02-13T11:17:46.341Z,100005.91
2024-02-13T11:22:58.786Z,100002.28
2024-02-13T11:28:05.367Z,100005.34
2024-02-13T11:33:09.633Z,100004.66
2024-02-13T11:38:17.759Z,99998.25
2024-02-13T11:43:36.408Z,99995.75
2024-02-13T11:48:48.314Z,100003.03
2024-02-13T11:53:54.289Z,99999.44
2024-02-13T11:59:06.988Z,100000.50
2024-02-13T12:04:09.517Z,100016.44
2024-02-13T12:09:10.726Z,100004.63
2024-02-13T12:14:24.863Z,100011.72
2024-02-13T12:19:27.150Z,100013.47
2024-02-13T12:24:28.179Z,100016.56
2024-02-13T12:29:28.074Z,100020.28
2024-02-13T12:34:34.937Z,100025.13
2024-02-13T12:39:37.919Z,100019.97
2024-02-13T12:44:37.759Z,100025.44
2024-02-13T12:49:44.611Z,100029.13
2024-02-13T12:54:47.590Z,100030.50
2024-02-13T13:00:01.405Z,100035.88
2024-02-13T13:05:05.170Z,100049.69
2024-02-13T13:10:15.754Z,100033.75
2024-02-13T13:15:19.958Z,100034.19
2024-02-13T13:20:32.176Z,100043.25
2024-02-13T13:25:36.374Z,100058.84
2024-02-13T13:30:36.991Z,100054.41
2024-02-13T13:35:39.400Z,100048.84
2024-02-13T13:40:41.068Z,100054.09
2024-02-13T13:45:42.134Z,100055.44
2024-02-13T13:50:41.445Z,100064.78
2024-02-13T13:55:49.480Z,100050.31
2024-02-13T14:00:51.170Z,100068.19
2024-02-13T14:05:50.891Z,100072.75
2024-02-13T14:10:58.391Z,100070.41
2024-02-13T14:16:06.783Z,100084.41
2024-02-13T14:21:15.139Z,100074.44
2024-02-13T14:26:24.653Z,100073.88
2024-02-13T14:31:27.002Z,100073.91
2024-02-13T14:36:26.899Z,100084.69
2024-02-13T14:41:34.701Z,100094.84
2024-02-13T14:46:44.686Z,100099.84
2024-02-13T14:51:44.119Z,100095.97
2024-02-13T14:56:48.466Z,100096.97
2024-02-13T15:01:51.277Z,100108.56
2024-02-13T15:06:50.867Z,100107.72
2024-02-13T15:12:28.113Z,100117.56
2024-02-13T15:17:27.112Z,100127.25
2024-02-13T15:22:32.500Z,100129.13
2024-02-13T15:27:44.406Z,100137.69
2024-02-13T15:32:45.816Z,100145.03
2024-02-13T15:38:04.553Z,100152.34
2024-02-13T15:43:22.291Z,100149.06
2024-02-13T15:48:22.052Z,100167.00
2024-02-13T15:53:22.042Z,100169.56
2024-02-13T15:58:22.824Z,100177.81
2024-02-13T16:03:21.889Z,100202.25
2024-02-13T16:08:22.342Z,100194.16
2024-02-13T16:13:25.628Z,100195.38
2024-02-13T16:18:25.572Z,100202.59
2024-02-13T16:23:24.647Z,100212.28
2024-02-13T16:28:25.839Z,100217.75
2024-02-13T16:33:25.049Z,100218.72
2024-02-13T16:38:24.347Z,100231.34
2024-02-13T16:43:27.852Z,100244.84
2024-02-13T16:48:33.043Z,100241.16
2024-02-13T16:53:35.698Z,100238.22
2024-02-13T16:58:36.102Z,100241.94
2024-02-13T17:03:35.254Z,100249.22
2024-02-13T17:08:36.010Z,100250.13
2024-02-13T17:13:36.540Z,100250.06
2024-02-13T17:18:35.803Z,100248.28
2024-02-13T17:23:37.090Z,100255.56
2024-02-13T17:28:39.791Z,100260.09
2024-02-13T17:33:38.876Z,100261.44
2024-02-13T17:38:40.658Z,100256.84
2024-02-13T17:43:41.102Z,100267.56
2024-02-13T17:48:40.467Z,100279.16
2024-02-13T17:53:39.388Z,100274.31
2024-02-13T17:58:38.855Z,100276.19
2024-02-13T18:03:39.566Z,100279.84
2024-02-13T18:08:38.573Z,100286.28
2024-02-13T18:13:37.696Z,100291.66
2024-02-13T18:18:36.714Z,100298.41
2024-02-13T18:23:37.068Z,100305.75
2024-02-13T18:28:35.943Z,100306.97
2024-02-13T18:33:35.232Z,100309.94
2024-02-13T18:38:34.538Z,100313.81
2024-02-13T18:43:38.911Z,100310.09
2024-02-13T18:48:39.021Z,100315.09
2024-02-13T18:53:37.958Z,100320.25
2024-02-13T18:58:40.080Z,100320.50
2024-02-13T19:03:39.236Z,100327.03
2024-02-13T19:08:38.233Z,100326.03
2024-02-13T19:13:38.612Z,100329.91
2024-02-13T19:18:39.703Z,100330.94
2024-02-13T19:23:38.670Z,100334.84
2024-02-13T19:28:45.476Z,100335.78
2024-02-13T19:33:44.660Z,100345.03
2024-02-13T19:38:45.722Z,100342.81
2024-02-13T19:43:46.047Z,100348.16
2024-02-13T19:48:47.349Z,100349.75
2024-02-13T19:53:47.626Z,100351.53
2024-02-13T19:58:47.889Z,100356.53
2024-02-13T20:03:46.796Z,100371.63
2024-02-13T20:08:45.822Z,100373.41
2024-02-13T20:13:45.285Z,100389.94
2024-02-13T20:18:45.952Z,100399.28
2024-02-13T20:23:47.112Z,100405.56
2024-02-13T20:28:46.109Z,100408.63
2024-02-13T20:33:46.412Z,100425.75
2024-02-13T20:38:45.662Z,100412.00
2024-02-13T20:43:45.195Z,100419.56
2024-02-13T20:48:45.948Z,100432.88
2024-02-13T20:53:45.437Z,100436.59
2024-02-13T20:58:46.367Z,100443.66
2024-02-13T21:03:47.615Z,100457.97
2024-02-13T21:08:46.513Z,100458.81
2024-02-13T21:13:46.391Z,100457.53
2024-02-13T21:18:47.137Z,100468.00
2024-02-13T21:23:55.158Z,100472.88
2024-02-13T21:28:54.943Z,100477.31
2024-02-13T21:33:55.616Z,100477.66
2024-02-13T21:38:54.669Z,100481.91
2024-02-13T21:43:53.677Z,100485.16
2024-02-13T21:48:52.759Z,100503.38
2024-02-13T21:53:53.150Z,100508.47
2024-02-13T21:58:52.326Z,100514.19
2024-02-13T22:03:51.158Z,100520.66
2024-02-13T22:08:50.178Z,100525.91
2024-02-13T22:13:50.646Z,100522.53
2024-02-13T22:18:49.615Z,100523.31
2024-02-13T22:23:48.485Z,100527.50
2024-02-13T22:28:47.351Z,100528.19
2024-02-13T22:33:49.602Z,100531.91
2024-02-13T22:38:48.602Z,100537.28
2024-02-13T22:43:47.687Z,100535.69
2024-02-13T22:48:47.978Z,100542.31
2024-02-13T22:53:47.068Z,100541.47
2024-02-13T22:58:46.059Z,100541.16
2024-02-13T23:03:50.995Z,100541.78
2024-02-13T23:08:50.095Z,100550.09
2024-02-13T23:13:51.255Z,100547.38
2024-02-13T23:18:55.577Z,100546.84
2024-02-13T23:23:55.007Z,100542.59
2024-02-13T23:28:57.118Z,100557.97
2024-02-13T23:33:58.190Z,100554.13
2024-02-13T23:38:57.541Z,100565.38
2024-02-13T23:43:56.358Z,100570.66
2024-02-13T23:48:55.827Z,100575.56
2024-02-13T23:53:56.422Z,100579.22
2024-02-13T23:58:55.244Z,100587.09
